This is the latest recevied weather packets stored in our database for station/object N7UV-WX. If no packets are shown the sender has not sent any weather packets the latest 10 day(s).
| Time | Temp. | Humidity | Pressure | Rain* | Wind** | Luminosity | Snow |
|---|---|---|---|---|---|---|---|
| 1777698934 | 28.33° C | 14% | 1008.2 hPa | 0 mm | - | 0 W/m² | - |
| 1777695319 | 28.33° C | 16% | 1007.8 hPa | 0 mm | - | 0 W/m² | - |
| 1777694719 | 28.33° C | 16% | 1007.8 hPa | 0 mm | - | 0 W/m² | - |
| 1777691748 | 28.33° C | 17% | 1007.1 hPa | 0 mm | - | 0 W/m² | - |
| 1777689954 | 28.33° C | 18% | 1006.7 hPa | 0 mm | - | 0 W/m² | - |
| 1777688719 | 28.33° C | 17% | 1006.4 hPa | 0 mm | - | 0 W/m² | - |
| 1777688119 | 28.89° C | 17% | 1006.4 hPa | 0 mm | - | 0 W/m² | - |
| 1777686918 | 29.44° C | 17% | 1006.4 hPa | 0 mm | - | 19 W/m² | - |
| 1777685719 | 29.44° C | 17% | 1006.3 hPa | 0 mm | - | 69 W/m² | - |
| 1777683920 | 29.44° C | 16% | 1006.4 hPa | 0 mm | - | 190 W/m² | - |
| 1777680935 | 30° C | 17% | 1006.6 hPa | 0 mm | - | 390 W/m² | - |
| 1777678518 | 29.44° C | 17% | 1006.8 hPa | 0 mm | - | 541 W/m² | - |
| 1777676755 | 29.44° C | 19% | 1006.9 hPa | 0 mm | - | 651 W/m² | - |
| 1777674336 | 28.89° C | 20% | 1007.6 hPa | 0 mm | - | 777 W/m² | - |
| 1777672520 | 28.33° C | 20% | 1007.9 hPa | 0 mm | - | 865 W/m² | - |
| 1777668920 | 27.78° C | 21% | 1008.7 hPa | 0 mm | - | 986 W/m² | - |
| 1777668336 | 28.33° C | 22% | 1008.8 hPa | 0 mm | - | 1004 W/m² | - |
| 1777665934 | 27.22° C | 23% | 1009.1 hPa | 0 mm | - | 1044 W/m² | - |
| 1777664755 | 26.67° C | 25% | 1009.2 hPa | 0 mm | - | 1051 W/m² | - |
| 1777662334 | 26.11° C | 26% | 1009.8 hPa | 0 mm | - | 1039 W/m² | - |
| 1777659934 | 25.56° C | 27% | 1010.4 hPa | 0 mm | - | 998 W/m² | - |
| 1777658719 | 25.56° C | 28% | 1010.7 hPa | 0 mm | - | 962 W/m² | - |
| 1777652119 | 22.22° C | 36% | 1010.8 hPa | 0 mm | - | 687 W/m² | - |
| 1777649755 | 21.67° C | 38% | 1010.7 hPa | 0 mm | - | 554 W/m² | - |
| 1777649119 | 21.67° C | 39% | 1010.6 hPa | 0 mm | - | 517 W/m² | - |
* Rain latest hour (hover to see other rain measurements)
** Current wind speed in m/s (hover to see current wind gust speed)